Time;durP1;ratioP1;P1;durP2;ratioP2;P2;SDS_P1;SDS_P2;PMS_P1;PMS_P2;Temp;Humidity;BMP_temperature;BMP_pressure;BME280_temperature;BME280_humidity;BME280_pressure;Samples;Min_cycle;Max_cycle;Signal;HPM_P1;HPM_P2
2021/05/29 00:00:31;;;;;;;20.25;10.95;;;;;;;7.80;100.00;102354.81;5245585;28;20139;-83
2021/05/29 00:03:02;;;;;;;20.23;9.23;;;;;;;7.87;100.00;102358.75;5245276;28;20032;-82
2021/05/29 00:05:33;;;;;;;27.23;11.70;;;;;;;7.79;100.00;102364.66;5245809;28;20060;-82
2021/05/29 00:08:03;;;;;;;22.20;10.73;;;;;;;7.74;100.00;102360.63;5245175;28;20020;-82
2021/05/29 00:10:36;;;;;;;23.38;10.77;;;;;;;7.74;100.00;102360.63;5245540;28;20036;-82
2021/05/29 00:13:07;;;;;;;24.52;10.73;;;;;;;7.73;100.00;102358.88;5244703;28;20025;-82
2021/05/29 00:15:39;;;;;;;24.27;10.38;;;;;;;7.76;100.00;102359.53;5238339;28;20025;-83
2021/05/29 00:18:10;;;;;;;21.95;10.50;;;;;;;7.69;100.00;102352.09;5243542;28;20028;-83
2021/05/29 00:20:40;;;;;;;20.80;9.65;;;;;;;7.70;100.00;102364.47;5245225;28;20081;-82
2021/05/29 00:23:12;;;;;;;19.13;10.13;;;;;;;7.76;100.00;102364.03;5245568;28;20025;-82
2021/05/29 00:25:44;;;;;;;22.48;11.27;;;;;;;7.72;100.00;102366.06;5244914;28;20384;-83
2021/05/29 00:28:15;;;;;;;23.73;10.65;;;;;;;7.83;100.00;102365.31;5243952;28;20037;-83
2021/05/29 00:30:46;;;;;;;20.50;11.18;;;;;;;7.82;100.00;102366.25;5244908;28;20036;-83
2021/05/29 00:33:17;;;;;;;20.42;10.07;;;;;;;7.82;100.00;102370.72;5245216;28;20455;-83
2021/05/29 00:35:48;;;;;;;21.52;10.02;;;;;;;7.77;100.00;102365.72;5245096;28;20021;-83
2021/05/29 00:38:18;;;;;;;25.05;9.88;;;;;;;7.72;100.00;102368.72;5244739;28;20073;-83
2021/05/29 00:40:49;;;;;;;20.13;8.55;;;;;;;7.66;100.00;102361.16;5260434;28;20041;-82
2021/05/29 00:43:20;;;;;;;23.25;10.15;;;;;;;7.62;100.00;102364.16;5244888;28;20021;-82
2021/05/29 00:45:50;;;;;;;20.70;11.15;;;;;;;7.59;100.00;102356.38;5245162;28;20035;-83
2021/05/29 00:48:21;;;;;;;25.15;12.38;;;;;;;7.57;100.00;102355.63;5244981;28;20020;-83
2021/05/29 00:50:59;;;;;;;19.08;11.40;;;;;;;7.51;100.00;102356.91;5244418;28;20021;-82
2021/05/29 00:53:33;;;;;;;21.63;11.20;;;;;;;7.46;100.00;102346.56;5244858;28;20204;-83
2021/05/29 00:56:05;;;;;;;19.77;9.32;;;;;;;7.45;100.00;102352.03;5244928;28;20028;-84
2021/05/29 00:58:36;;;;;;;19.75;10.85;;;;;;;7.48;100.00;102357.13;5246040;28;20028;-82
2021/05/29 01:01:06;;;;;;;20.63;9.95;;;;;;;7.44;100.00;102353.00;5244745;28;20035;-82
2021/05/29 01:03:37;;;;;;;20.33;11.88;;;;;;;7.36;100.00;102352.66;5245039;28;20127;-82
2021/05/29 01:06:08;;;;;;;22.67;11.23;;;;;;;7.29;100.00;102348.75;5245373;28;20523;-83
2021/05/29 01:08:39;;;;;;;20.80;11.15;;;;;;;7.24;100.00;102357.91;5255581;28;20016;-82
2021/05/29 01:11:10;;;;;;;25.60;12.68;;;;;;;7.20;100.00;102353.75;5250357;28;20059;-83
2021/05/29 01:13:40;;;;;;;27.90;12.70;;;;;;;7.13;100.00;102355.16;5248634;28;20017;-82
2021/05/29 01:16:21;;;;;;;22.52;11.02;;;;;;;7.09;100.00;102353.66;5247875;28;20047;-83
2021/05/29 01:18:51;;;;;;;16.88;9.38;;;;;;;7.09;100.00;102353.66;5246320;28;20038;-83
2021/05/29 01:21:22;;;;;;;22.67;11.60;;;;;;;7.12;100.00;102350.75;5244588;28;20028;-82
2021/05/29 01:23:54;;;;;;;22.55;12.07;;;;;;;7.16;100.00;102362.94;5244881;28;20027;-82
2021/05/29 01:26:24;;;;;;;20.33;10.93;;;;;;;7.12;100.00;102356.09;5248123;28;20044;-83
2021/05/29 01:28:56;;;;;;;19.83;10.88;;;;;;;7.10;100.00;102363.38;5248943;28;20360;-82
2021/05/29 01:31:30;;;;;;;21.83;12.30;;;;;;;7.15;100.00;102363.91;5247583;28;20025;-82
2021/05/29 01:34:01;;;;;;;22.75;11.38;;;;;;;7.17;100.00;102364.63;5249053;28;20021;-82
2021/05/29 01:36:38;;;;;;;22.40;11.68;;;;;;;7.09;100.00;102379.50;5248327;28;20024;-83
2021/05/29 01:39:18;;;;;;;24.92;12.90;;;;;;;7.01;100.00;102372.84;5248818;28;20036;-83
2021/05/29 01:41:51;;;;;;;19.40;11.82;;;;;;;6.99;100.00;102368.59;5248930;28;20356;-82
2021/05/29 01:44:23;;;;;;;31.95;13.10;;;;;;;7.03;100.00;102382.56;5248941;28;20455;-83
2021/05/29 01:46:53;;;;;;;24.35;11.93;;;;;;;6.97;100.00;102374.03;5248189;28;20549;-83
2021/05/29 01:49:25;;;;;;;23.95;12.88;;;;;;;6.97;100.00;102375.84;5248238;28;20032;-83
2021/05/29 01:51:55;;;;;;;22.92;13.27;;;;;;;7.12;100.00;102381.94;5248384;28;20074;-82
2021/05/29 01:54:26;;;;;;;22.35;12.63;;;;;;;7.42;100.00;102379.78;5248708;28;20483;-82
2021/05/29 01:56:57;;;;;;;23.73;11.57;;;;;;;7.51;100.00;102381.81;5248578;28;20035;-83
2021/05/29 01:59:28;;;;;;;21.48;12.20;;;;;;;7.61;100.00;102386.50;5248486;28;20150;-83
2021/05/29 02:01:58;;;;;;;24.90;11.02;;;;;;;7.67;100.00;102391.41;5248505;28;20020;-83
2021/05/29 02:04:29;;;;;;;19.88;11.68;;;;;;;7.93;100.00;102400.19;5250104;28;20036;-83
2021/05/29 02:06:59;;;;;;;18.00;10.88;;;;;;;8.05;100.00;102396.66;5248681;28;20028;-83
2021/05/29 02:09:30;;;;;;;19.10;11.13;;;;;;;8.21;100.00;102397.22;5246708;28;20021;-83
2021/05/29 02:12:02;;;;;;;22.27;11.00;;;;;;;8.24;100.00;102397.00;5247124;28;20024;-82
2021/05/29 02:14:33;;;;;;;18.50;11.27;;;;;;;8.28;100.00;102393.16;5248468;28;20380;-83
2021/05/29 02:17:03;;;;;;;22.33;11.30;;;;;;;8.35;100.00;102387.34;5239683;28;20033;-83
2021/05/29 02:19:34;;;;;;;18.75;10.23;;;;;;;8.26;100.00;102391.53;5248072;28;20082;-83
2021/05/29 02:22:05;;;;;;;29.20;10.30;;;;;;;8.13;100.00;102393.41;5248371;28;20115;-83
2021/05/29 02:24:35;;;;;;;17.15;9.20;;;;;;;7.98;100.00;102390.03;5247747;28;20025;-83
2021/05/29 02:27:06;;;;;;;18.25;10.60;;;;;;;7.80;100.00;102392.22;5246710;28;20052;-83
2021/05/29 02:29:36;;;;;;;18.98;10.43;;;;;;;7.74;100.00;102401.53;5247905;28;20020;-83
2021/05/29 02:32:07;;;;;;;19.98;10.88;;;;;;;7.61;100.00;102395.34;5247854;28;20034;-83
2021/05/29 02:34:37;;;;;;;21.65;10.63;;;;;;;7.52;100.00;102394.19;5247931;28;20063;-83
2021/05/29 02:37:08;;;;;;;20.80;11.18;;;;;;;7.48;100.00;102391.84;5246771;28;20036;-83
2021/05/29 02:39:38;;;;;;;22.67;12.00;;;;;;;7.35;100.00;102391.00;5247676;28;20024;-83
2021/05/29 02:42:09;;;;;;;22.50;11.18;;;;;;;7.28;100.00;102385.25;5247744;28;20035;-83
2021/05/29 02:44:39;;;;;;;19.67;11.18;;;;;;;7.22;100.00;102389.19;5246378;28;20101;-83
2021/05/29 02:47:10;;;;;;;20.63;11.13;;;;;;;7.24;100.00;102389.09;5247615;28;20501;-83
2021/05/29 02:49:40;;;;;;;21.90;12.20;;;;;;;7.21;100.00;102379.47;5246808;28;20035;-83
2021/05/29 02:52:11;;;;;;;23.10;11.95;;;;;;;7.17;100.00;102385.97;5247561;28;20483;-83
2021/05/29 02:54:42;;;;;;;20.98;10.38;;;;;;;7.12;100.00;102387.25;5247537;28;20025;-83
2021/05/29 02:57:13;;;;;;;24.30;12.63;;;;;;;7.06;100.00;102387.69;5247391;28;20082;-83
2021/05/29 02:59:44;;;;;;;25.00;11.57;;;;;;;6.99;100.00;102385.47;5247186;28;20024;-83
2021/05/29 03:02:14;;;;;;;18.13;10.13;;;;;;;6.95;100.00;102389.28;5246996;28;20028;-83
2021/05/29 03:04:45;;;;;;;18.00;10.30;;;;;;;6.89;100.00;102389.72;5245826;28;20059;-83
2021/05/29 03:07:16;;;;;;;21.15;12.00;;;;;;;6.88;100.00;102389.84;5247394;28;20056;-83
2021/05/29 03:09:47;;;;;;;22.95;12.25;;;;;;;6.91;100.00;102390.44;5246934;28;20036;-83
2021/05/29 03:12:17;;;;;;;25.77;12.88;;;;;;;6.89;100.00;102387.06;5247313;28;20138;-83
2021/05/29 03:14:48;;;;;;;24.02;11.30;;;;;;;6.84;100.00;102388.31;5246605;28;20111;-83
2021/05/29 03:17:18;;;;;;;20.80;11.00;;;;;;;6.77;100.00;102395.88;5237133;28;20020;-83
2021/05/29 03:19:49;;;;;;;24.85;12.75;;;;;;;6.71;100.00;102388.28;5246614;28;20028;-83
2021/05/29 03:22:20;;;;;;;26.60;12.45;;;;;;;6.65;100.00;102389.56;5247139;28;20415;-83
2021/05/29 03:24:50;;;;;;;19.05;10.88;;;;;;;6.62;100.00;102396.91;5246548;28;20027;-82
2021/05/29 03:27:21;;;;;;;24.48;12.00;;;;;;;6.62;100.00;102396.91;5246509;28;20020;-83
2021/05/29 03:29:52;;;;;;;22.58;12.55;;;;;;;6.61;100.00;102405.88;5245417;28;20452;-83
2021/05/29 03:32:23;;;;;;;22.67;12.18;;;;;;;6.63;100.00;102401.31;5246880;28;20034;-83
2021/05/29 03:34:53;;;;;;;25.00;13.35;;;;;;;6.63;100.00;102403.97;5246638;28;20028;-83
2021/05/29 03:37:24;;;;;;;27.90;14.07;;;;;;;6.75;100.00;102400.47;5246271;28;20029;-83
2021/05/29 03:39:54;;;;;;;23.48;12.60;;;;;;;6.77;100.00;102406.53;5246621;28;20055;-83
2021/05/29 03:42:25;;;;;;;22.63;13.07;;;;;;;6.81;100.00;102404.53;5245399;28;20102;-83
2021/05/29 03:44:55;;;;;;;27.85;14.52;;;;;;;6.89;100.00;102411.06;5246624;28;20029;-83
2021/05/29 03:47:26;;;;;;;31.38;15.27;;;;;;;6.99;100.00;102411.28;5246321;28;20020;-83
2021/05/29 03:49:56;;;;;;;27.52;14.40;;;;;;;7.12;100.00;102405.94;5246152;28;20487;-83
2021/05/29 03:52:27;;;;;;;25.40;13.80;;;;;;;7.22;100.00;102412.34;5244934;28;20395;-83
2021/05/29 03:54:58;;;;;;;22.42;13.75;;;;;;;7.23;100.00;102414.94;5246114;28;20471;-83
2021/05/29 03:57:28;;;;;;;24.85;13.40;;;;;;;7.26;100.00;102425.38;5245869;28;20039;-83
2021/05/29 03:59:59;;;;;;;26.10;14.38;;;;;;;7.37;100.00;102418.44;5245911;28;20392;-83
2021/05/29 04:02:29;;;;;;;25.45;13.77;;;;;;;7.38;100.00;102426.38;5245782;28;20104;-83
2021/05/29 04:05:00;;;;;;;24.65;13.55;;;;;;;7.43;100.00;102418.00;5246080;28;20024;-83
2021/05/29 04:07:30;;;;;;;24.55;13.35;;;;;;;7.42;100.00;102417.16;5246086;28;20020;-83
2021/05/29 04:10:01;;;;;;;25.00;13.13;;;;;;;7.41;100.00;102420.81;5245715;28;20024;-83
2021/05/29 04:12:32;;;;;;;23.83;13.25;;;;;;;7.37;100.00;102429.97;5246106;28;20103;-83
2021/05/29 04:15:04;;;;;;;23.02;14.20;;;;;;;7.40;100.00;102429.78;5245536;28;20036;-83
2021/05/29 04:17:35;;;;;;;26.45;13.52;;;;;;;7.42;100.00;102430.50;5245568;28;20029;-83
2021/05/29 04:20:07;;;;;;;26.65;12.77;;;;;;;7.42;100.00;102429.66;5244913;28;20107;-83
2021/05/29 04:22:38;;;;;;;26.30;13.93;;;;;;;7.51;100.00;102427.19;5246099;28;20029;-83
2021/05/29 04:25:13;;;;;;;28.92;13.38;;;;;;;7.52;100.00;102422.72;5245795;28;20031;-83
2021/05/29 04:27:44;;;;;;;30.27;13.05;;;;;;;7.58;100.00;102424.97;5245295;28;20043;-83
2021/05/29 04:30:18;;;;;;;23.13;13.18;;;;;;;7.65;100.00;102430.72;5245708;28;20410;-83
2021/05/29 04:32:49;;;;;;;29.05;14.60;;;;;;;7.81;100.00;102428.66;5245516;28;20099;-83
2021/05/29 04:35:20;;;;;;;22.58;13.13;;;;;;;7.84;100.00;102439.16;5245812;28;20527;-83
2021/05/29 04:37:52;;;;;;;23.85;12.85;;;;;;;7.90;100.00;102441.38;5245138;28;20104;-83
2021/05/29 04:40:24;;;;;;;27.55;13.70;;;;;;;8.01;100.00;102437.94;5245213;28;20078;-83
2021/05/29 04:42:55;;;;;;;30.63;14.95;;;;;;;8.11;100.00;102443.47;5245432;28;20396;-83
2021/05/29 04:45:25;;;;;;;26.58;14.13;;;;;;;8.27;100.00;102444.03;5245411;28;20069;-83
2021/05/29 04:47:56;;;;;;;25.48;14.40;;;;;;;8.39;100.00;102448.53;5245510;28;20052;-83
2021/05/29 04:50:27;;;;;;;25.15;13.45;;;;;;;8.46;100.00;102436.41;5245028;28;20027;-83
2021/05/29 04:52:57;;;;;;;23.33;14.45;;;;;;;8.61;100.00;102444.25;5245626;28;20032;-83
2021/05/29 04:55:28;;;;;;;25.92;13.40;;;;;;;8.83;100.00;102447.03;5241647;28;20025;-82
2021/05/29 04:57:58;;;;;;;30.38;14.10;;;;;;;9.00;100.00;102443.09;5244612;28;20025;-82
2021/05/29 05:00:29;;;;;;;21.70;13.32;;;;;;;9.04;100.00;102445.41;5248565;28;20135;-83
2021/05/29 05:02:59;;;;;;;28.35;13.68;;;;;;;9.16;100.00;102454.31;5251791;28;20032;-82
2021/05/29 05:05:29;;;;;;;26.75;13.93;;;;;;;9.23;100.00;102457.38;5252434;28;20036;-82
2021/05/29 05:08:00;;;;;;;26.08;12.90;;;;;;;9.28;100.00;102456.03;5251893;28;20024;-82
2021/05/29 05:10:31;;;;;;;26.45;13.75;;;;;;;9.41;100.00;102460.47;5250948;28;20386;-83
2021/05/29 05:13:01;;;;;;;21.63;12.07;;;;;;;9.48;100.00;102461.66;5251905;28;20060;-83
2021/05/29 05:15:32;;;;;;;28.73;13.73;;;;;;;9.51;100.00;102470.34;5245921;28;20427;-83
2021/05/29 05:18:04;;;;;;;29.60;14.23;;;;;;;9.60;100.00;102472.28;5249240;28;20027;-83
2021/05/29 05:20:37;;;;;;;24.15;13.27;;;;;;;9.81;100.00;102467.06;5252043;28;20034;-83
2021/05/29 05:23:09;;;;;;;22.75;13.55;;;;;;;10.71;100.00;102469.63;5251577;28;20033;-83
2021/05/29 05:25:39;;;;;;;19.38;10.63;;;;;;;12.44;100.00;102471.56;5251772;28;20023;-83
2021/05/29 05:28:10;;;;;;;19.55;9.82;;;;;;;14.62;100.00;102461.66;5252031;28;20487;-83
2021/05/29 05:30:41;;;;;;;22.42;10.60;;;;;;;15.66;100.00;102465.38;5251443;28;20028;-83
2021/05/29 05:33:12;;;;;;;14.43;8.70;;;;;;;17.14;100.00;102470.19;5252228;28;20025;-83
2021/05/29 05:35:43;;;;;;;14.55;8.23;;;;;;;17.85;100.00;102466.69;5251722;28;20028;-83
2021/05/29 05:38:14;;;;;;;15.00;7.72;;;;;;;19.03;100.00;102460.25;5251817;28;20078;-84
2021/05/29 05:40:44;;;;;;;13.27;8.93;;;;;;;20.05;73.44;102474.19;5251612;28;20048;-84
2021/05/29 05:43:15;;;;;;;14.20;7.75;;;;;;;20.46;70.62;102481.81;5269632;28;20139;-84
2021/05/29 05:45:46;;;;;;;13.27;8.38;;;;;;;20.61;69.10;102479.91;5249483;28;20029;-84
2021/05/29 05:48:17;;;;;;;13.45;7.88;;;;;;;21.17;61.91;102485.47;5249675;28;20044;-84
2021/05/29 05:50:53;;;;;;;13.32;8.80;;;;;;;20.75;61.22;102486.34;5254720;28;20094;-84
2021/05/29 05:53:26;;;;;;;13.73;8.15;;;;;;;20.81;61.96;102491.03;5255426;28;20035;-84
2021/05/29 05:56:01;;;;;;;11.20;7.60;;;;;;;20.27;68.11;102489.53;5251543;28;20147;-82
2021/05/29 05:58:34;;;;;;;13.13;8.37;;;;;;;20.53;65.11;102499.09;5252649;28;20450;-84
2021/05/29 06:01:06;;;;;;;15.07;9.00;;;;;;;20.35;68.50;102494.91;5253749;28;20278;-83
2021/05/29 06:03:37;;;;;;;11.20;8.38;;;;;;;19.92;71.42;102497.47;5252520;28;20059;-83
2021/05/29 06:06:07;;;;;;;15.80;7.75;;;;;;;21.32;60.91;102501.81;5253419;28;20056;-83
2021/05/29 06:08:38;;;;;;;11.90;8.75;;;;;;;20.58;63.86;102502.09;5253861;28;20032;-83
2021/05/29 06:11:09;;;;;;;13.02;8.38;;;;;;;20.46;64.86;102511.78;5252156;28;20036;-83
2021/05/29 06:21:46;;;;;;;15.50;9.02;;;;;;;20.05;70.65;102515.88;5251514;28;20483;-83
2021/05/29 06:24:27;;;;;;;15.88;9.93;;;;;;;19.49;86.08;102522.78;5251422;28;20133;-82
2021/05/29 06:26:58;;;;;;;14.20;8.40;;;;;;;20.25;74.54;102516.16;5250671;28;20262;-82
2021/05/29 06:29:28;;;;;;;13.82;8.10;;;;;;;20.73;66.47;102511.06;5247814;28;20044;-83
2021/05/29 06:31:59;;;;;;;15.25;8.45;;;;;;;20.16;71.24;102514.56;5246617;28;20024;-82
2021/05/29 06:34:29;;;;;;;15.10;8.75;;;;;;;19.86;78.16;102513.72;5247664;28;20017;-84
2021/05/29 06:37:00;;;;;;;16.10;8.90;;;;;;;19.53;85.09;102522.22;5247658;28;20040;-85
2021/05/29 06:39:30;;;;;;;12.60;9.30;;;;;;;19.60;82.86;102522.34;5247660;28;20025;-83
2021/05/29 06:42:01;;;;;;;14.40;9.05;;;;;;;19.20;84.65;102521.66;5248276;28;20404;-84
2021/05/29 06:44:31;;;;;;;13.25;8.60;;;;;;;18.69;92.26;102526.78;5247904;28;20024;-84
2021/05/29 06:47:03;;;;;;;18.23;10.00;;;;;;;18.15;100.00;102520.38;5247469;28;21806;-84
2021/05/29 06:49:36;;;;;;;17.75;9.82;;;;;;;17.72;100.00;102523.38;5249070;28;20044;-83
2021/05/29 06:52:11;;;;;;;19.13;9.63;;;;;;;17.60;100.00;102530.16;5250005;28;20035;-84
2021/05/29 06:54:55;;;;;;;13.73;9.60;;;;;;;17.30;100.00;102534.44;5250232;28;20028;-83
2021/05/29 07:00:16;;;;;;;14.73;10.13;;;;;;;16.74;100.00;102536.06;5248271;28;20856;-82
2021/05/29 07:02:46;;;;;;;14.30;10.05;;;;;;;16.49;100.00;102532.41;5247312;28;20302;-83
2021/05/29 07:05:17;;;;;;;16.65;9.48;;;;;;;16.37;100.00;102531.03;5247165;28;20376;-84
2021/05/29 07:07:47;;;;;;;16.88;10.48;;;;;;;16.37;100.00;102539.16;5246868;28;20032;-84
2021/05/29 07:10:18;;;;;;;18.08;10.13;;;;;;;16.35;100.00;102538.44;5247090;28;20111;-84
2021/05/29 07:12:48;;;;;;;16.35;10.23;;;;;;;16.46;100.00;102540.84;5246817;28;20035;-82
2021/05/29 07:15:19;;;;;;;14.82;9.50;;;;;;;16.71;100.00;102542.66;5242954;28;20028;-84
2021/05/29 07:17:53;;;;;;;16.13;9.25;;;;;;;16.79;100.00;102547.25;5241053;28;20059;-83
2021/05/29 07:20:24;;;;;;;19.43;9.47;;;;;;;16.81;100.00;102546.06;5246490;28;20484;-83
2021/05/29 07:22:54;;;;;;;14.70;9.40;;;;;;;16.94;100.00;102553.72;5246412;28;20033;-84
2021/05/29 07:25:25;;;;;;;16.98;10.30;;;;;;;17.15;100.00;102547.81;5247094;28;20025;-86
2021/05/29 07:27:56;;;;;;;16.70;8.68;;;;;;;17.30;100.00;102540.69;5233192;28;20066;-82
2021/05/29 07:30:27;;;;;;;16.17;8.45;;;;;;;17.38;100.00;102549.88;5246987;28;20115;-83
2021/05/29 07:32:57;;;;;;;14.98;8.18;;;;;;;17.47;100.00;102544.28;5246518;28;20365;-83
2021/05/29 07:35:28;;;;;;;19.48;9.80;;;;;;;17.40;100.00;102545.13;5246831;28;20043;-83
2021/05/29 07:37:58;;;;;;;15.90;8.65;;;;;;;17.73;100.00;102548.69;5246791;28;20017;-82
2021/05/29 07:40:29;;;;;;;10.40;7.03;;;;;;;17.88;100.00;102538.81;5246593;28;20032;-82
2021/05/29 07:43:00;;;;;;;20.55;8.13;;;;;;;17.78;100.00;102552.56;5262064;28;20028;-82
2021/05/29 07:45:30;;;;;;;15.18;8.20;;;;;;;18.06;98.74;102550.28;5245996;28;20373;-82
2021/05/29 07:48:01;;;;;;;11.98;8.10;;;;;;;18.20;100.00;102551.44;5246403;28;20036;-82
2021/05/29 07:50:31;;;;;;;12.88;8.85;;;;;;;18.49;95.64;102549.97;5246200;28;20029;-82
2021/05/29 07:53:02;;;;;;;14.90;7.10;;;;;;;18.37;86.42;102544.06;5246999;28;20567;-82
2021/05/29 07:55:32;;;;;;;14.45;8.25;;;;;;;18.26;92.68;102556.16;5246724;28;20107;-82
2021/05/29 07:58:03;;;;;;;24.02;8.57;;;;;;;18.21;91.50;102544.97;5246165;28;20044;-82
2021/05/29 08:00:33;;;;;;;13.68;7.68;;;;;;;18.46;89.79;102551.16;5246162;28;20048;-83
2021/05/29 08:03:04;;;;;;;14.57;7.65;;;;;;;18.64;100.00;102550.91;5261691;28;20503;-82
2021/05/29 08:05:35;;;;;;;9.70;5.53;;;;;;;18.79;82.80;102554.59;5246148;28;20073;-82
2021/05/29 08:08:05;;;;;;;15.30;6.10;;;;;;;18.83;74.87;102552.38;5233276;28;20059;-83
2021/05/29 08:10:36;;;;;;;10.10;6.30;;;;;;;18.83;75.76;102561.38;5245376;28;20028;-82
2021/05/29 08:13:07;;;;;;;13.13;6.90;;;;;;;18.92;93.33;102559.41;5232692;28;20496;-82
2021/05/29 08:15:37;;;;;;;12.45;4.10;;;;;;;19.01;75.74;102563.78;5239076;28;20045;-84
2021/05/29 08:18:08;;;;;;;12.05;4.82;;;;;;;19.23;69.11;102558.50;5241055;28;20510;-85
2021/05/29 08:20:39;;;;;;;6.10;4.07;;;;;;;19.20;68.55;102565.19;5245001;28;20528;-84
2021/05/29 08:23:09;;;;;;;6.80;3.75;;;;;;;19.23;68.81;102558.50;5245859;28;20347;-83
2021/05/29 08:25:40;;;;;;;7.07;3.78;;;;;;;19.33;68.06;102567.31;5245274;28;20024;-83
2021/05/29 08:28:10;;;;;;;6.93;3.70;;;;;;;19.50;62.57;102568.00;5246170;28;20024;-83
2021/05/29 08:30:41;;;;;;;5.53;2.65;;;;;;;19.53;57.79;102563.06;5246208;28;20361;-83
2021/05/29 08:33:11;;;;;;;3.63;2.42;;;;;;;19.75;63.45;102568.66;5245633;28;20050;-83
2021/05/29 08:35:42;;;;;;;4.55;2.25;;;;;;;19.92;57.79;102573.72;5245334;28;20048;-83
2021/05/29 08:38:13;;;;;;;8.38;3.33;;;;;;;20.04;55.46;102574.13;5245918;28;20028;-84
2021/05/29 08:40:44;;;;;;;9.13;2.70;;;;;;;20.18;55.47;102583.31;5245175;28;20437;-83
2021/05/29 08:43:14;;;;;;;4.75;2.92;;;;;;;20.19;54.17;102574.13;5245606;28;20520;-83
2021/05/29 08:45:45;;;;;;;4.63;2.35;;;;;;;20.18;55.97;102584.19;5245404;28;20039;-83
2021/05/29 08:48:16;;;;;;;8.15;3.08;;;;;;;20.14;55.31;102576.59;5245918;28;20028;-83
2021/05/29 08:53:35;;;;;;;4.88;2.80;;;;;;;20.03;58.24;102583.34;5245554;28;20107;-83
2021/05/29 08:56:06;;;;;;;4.78;3.50;;;;;;;20.27;59.41;102578.63;5245397;28;20107;-83
2021/05/29 08:58:37;;;;;;;8.07;2.50;;;;;;;20.44;54.74;102575.53;5232383;28;20082;-82
2021/05/29 09:01:08;;;;;;;4.07;2.30;;;;;;;20.43;51.01;102581.16;5245139;28;20031;-84
2021/05/29 09:03:43;;;;;;;3.80;2.80;;;;;;;20.48;52.69;102578.72;5245455;28;20016;-85
2021/05/29 09:06:17;;;;;;;5.80;3.47;;;;;;;20.58;55.03;102575.72;5245258;28;20025;-84
2021/05/29 09:08:50;;;;;;;5.03;3.42;;;;;;;20.55;52.16;102578.84;5244745;28;20021;-84
2021/05/29 09:11:49;;;;;;;7.43;3.25;;;;;;;20.80;56.91;102582.91;5245103;28;20020;-84
2021/05/29 09:14:20;;;;;;;9.65;3.20;;;;;;;21.10;54.32;102591.00;5244974;28;20048;-84
2021/05/29 09:17:14;;;;;;;5.25;2.95;;;;;;;21.04;51.12;102580.88;5244846;28;20024;-85
2021/05/29 09:19:57;;;;;;;4.93;2.83;;;;;;;21.08;51.16;102584.88;5245143;28;20024;-84
2021/05/29 09:22:54;;;;;;;8.93;3.00;;;;;;;20.90;53.23;102588.91;5245517;28;20031;-85
2021/05/29 09:25:26;;;;;;;4.32;2.70;;;;;;;21.09;51.57;102589.34;5244781;28;20107;-84
2021/05/29 09:28:00;;;;;;;4.13;3.05;;;;;;;21.20;51.12;102588.81;5244445;28;20032;-84
2021/05/29 09:30:40;;;;;;;5.75;2.63;;;;;;;21.03;50.40;102582.75;5244832;28;20025;-84
2021/05/29 09:33:14;;;;;;;4.97;2.42;;;;;;;21.36;47.55;102594.03;5245633;28;20024;-84
2021/05/29 09:35:47;;;;;;;4.88;3.10;;;;;;;21.20;50.09;102591.53;5244384;28;20495;-84
2021/05/29 09:38:17;;;;;;;3.83;2.80;;;;;;;21.19;48.33;102598.03;5246266;28;20043;-84
2021/05/29 09:40:50;;;;;;;5.10;2.78;;;;;;;21.37;48.84;102590.25;5260313;28;20382;-84
2021/05/29 09:43:21;;;;;;;3.25;2.50;;;;;;;21.25;49.51;102588.22;5244899;28;20042;-84
2021/05/29 09:45:58;;;;;;;6.47;2.80;;;;;;;21.30;48.96;102583.91;5244998;28;20174;-84
2021/05/29 09:48:30;;;;;;;3.38;2.30;;;;;;;21.59;48.30;102590.25;5248399;28;20396;-84
2021/05/29 09:51:12;;;;;;;3.90;2.40;;;;;;;21.70;48.57;102598.75;5248295;28;20028;-85
2021/05/29 09:53:45;;;;;;;3.70;2.53;;;;;;;21.58;47.45;102586.66;5248444;28;20082;-83
2021/05/29 09:56:26;;;;;;;3.78;1.98;;;;;;;21.90;44.46;102590.72;5248838;28;20119;-84
2021/05/29 09:59:00;;;;;;;6.53;3.17;;;;;;;22.06;45.82;102591.44;5235931;28;20028;-84
2021/05/29 10:01:40;;;;;;;8.13;3.05;;;;;;;22.29;47.39;102591.16;5249361;28;20021;-84
2021/05/29 10:04:13;;;;;;;5.88;2.85;;;;;;;22.08;44.12;102597.53;5248175;28;20037;-84
2021/05/29 10:06:55;;;;;;;4.80;2.67;;;;;;;21.84;42.43;102588.78;5234807;28;20036;-85
2021/05/29 10:09:26;;;;;;;5.55;2.67;;;;;;;21.81;43.91;102591.91;5247366;28;20032;-84
2021/05/29 10:11:57;;;;;;;4.65;2.90;;;;;;;21.82;45.21;102592.72;5248326;28;20021;-83
2021/05/29 10:14:30;;;;;;;5.15;3.20;;;;;;;21.73;45.40;102592.03;5246662;28;20050;-84
2021/05/29 10:17:07;;;;;;;6.82;3.78;;;;;;;21.59;45.63;102587.53;5239059;28;20016;-83
2021/05/29 10:19:40;;;;;;;5.78;2.97;;;;;;;21.81;45.25;102591.91;5247310;28;20377;-84
2021/05/29 10:22:14;;;;;;;5.93;2.83;;;;;;;21.98;45.86;102593.25;5247846;28;20100;-84
2021/05/29 10:24:46;;;;;;;8.35;2.60;;;;;;;22.01;44.64;102593.94;5247587;28;20115;-84
2021/05/29 10:27:24;;;;;;;4.22;2.83;;;;;;;22.25;46.10;102585.28;5247582;28;20111;-83
2021/05/29 10:29:59;;;;;;;2.78;1.83;;;;;;;22.58;44.12;102587.31;5262322;28;20021;-84
2021/05/29 10:32:29;;;;;;;6.32;2.47;;;;;;;22.56;42.84;102579.31;5247550;28;20027;-84
2021/05/29 10:35:05;;;;;;;5.40;2.80;;;;;;;22.49;44.52;102586.63;5247448;28;20591;-84
2021/05/29 10:37:41;;;;;;;5.55;2.90;;;;;;;22.29;42.26;102582.97;5247413;28;20020;-84
2021/05/29 10:40:16;;;;;;;6.53;3.20;;;;;;;22.44;45.69;102576.34;5242122;28;20400;-84
2021/05/29 10:43:11;;;;;;;5.30;2.90;;;;;;;22.44;44.95;102578.19;5247393;28;20028;-84
2021/05/29 10:45:50;;;;;;;6.97;2.97;;;;;;;22.48;43.20;102579.50;5247319;28;20067;-83
2021/05/29 10:48:24;;;;;;;5.60;3.50;;;;;;;22.42;43.97;102580.31;5246912;28;20035;-84
2021/05/29 10:51:09;;;;;;;6.53;3.97;;;;;;;22.52;45.88;102574.47;5262264;28;20028;-84
2021/05/29 10:53:43;;;;;;;6.20;3.67;;;;;;;22.47;45.02;102573.19;5247344;28;20029;-84
2021/05/29 10:56:17;;;;;;;5.85;3.88;;;;;;;22.46;45.05;102568.75;5247519;28;20020;-83
2021/05/29 10:59:11;;;;;;;10.18;3.88;;;;;;;22.46;44.09;102574.25;5246365;28;20028;-84
2021/05/29 11:01:43;;;;;;;5.75;3.20;;;;;;;21.56;46.29;102583.28;5231005;28;20035;-83
2021/05/29 11:04:16;;;;;;;6.85;4.10;;;;;;;21.82;43.96;102574.44;5237291;28;20036;-83
2021/05/29 11:06:51;;;;;;;5.80;3.80;;;;;;;21.70;45.39;102576.06;5247370;28;20491;-83
2021/05/29 11:09:32;;;;;;;7.57;3.90;;;;;;;21.62;46.94;102584.38;5247043;28;20028;-83
2021/05/29 11:12:04;;;;;;;9.45;4.72;;;;;;;21.26;46.91;102571.66;5234853;28;20419;-84
2021/05/29 11:14:49;;;;;;;8.70;5.18;;;;;;;20.74;46.44;102577.41;5246865;28;20059;-83
2021/05/29 11:17:25;;;;;;;9.85;6.07;;;;;;;20.29;47.99;102577.44;5246844;28;20278;-83
2021/05/29 11:20:05;;;;;;;8.93;5.32;;;;;;;20.34;49.80;102569.53;5246011;28;20704;-84
2021/05/29 11:22:38;;;;;;;8.43;5.25;;;;;;;20.69;50.57;102567.91;5262005;28;20033;-83
2021/05/29 11:25:13;;;;;;;8.98;5.72;;;;;;;21.31;48.66;102573.81;5246433;28;20075;-84
2021/05/29 11:27:45;;;;;;;9.95;5.45;;;;;;;21.54;48.84;102569.00;5246482;28;20024;-84
2021/05/29 11:30:20;;;;;;;7.82;4.55;;;;;;;21.63;44.19;102569.69;5246318;28;20029;-83
2021/05/29 11:35:37;;;;;;;5.72;3.95;;;;;;;21.38;46.39;102561.91;5246324;28;20562;-83
2021/05/29 11:38:17;;;;;;;7.25;4.05;;;;;;;21.37;47.10;102571.16;5246484;28;20071;-84
2021/05/29 11:40:50;;;;;;;8.15;4.60;;;;;;;21.77;45.44;102563.28;5232796;28;20024;-83
2021/05/29 11:43:32;;;;;;;9.00;4.25;;;;;;;21.85;44.90;102565.03;5246855;28;20032;-83
2021/05/29 11:46:06;;;;;;;6.40;4.13;;;;;;;21.92;41.23;102561.28;5247311;28;20029;-83
2021/05/29 11:48:39;;;;;;;5.60;3.38;;;;;;;22.10;45.68;102549.00;5246351;28;20028;-83
2021/05/29 11:51:12;;;;;;;6.90;4.22;;;;;;;22.33;43.91;102549.56;5245992;28;20052;-83
2021/05/29 11:53:44;;;;;;;5.82;3.38;;;;;;;22.56;44.07;102559.34;5245677;28;20069;-83